Time;durP1;ratioP1;P1;durP2;ratioP2;P2;SDS_P1;SDS_P2;PMS_P1;PMS_P2;Temp;Humidity;BMP_temperature;BMP_pressure;BME280_temperature;BME280_humidity;BME280_pressure;Samples;Min_cycle;Max_cycle;Signal;HPM_P1;HPM_P2
2023/12/26 00:01:50;;;;;;;1.23;0.60;;;;;;;-0.98;79.52;99028.47;5047854;28;20068;-80
2023/12/26 00:04:17;;;;;;;1.67;0.70;;;;;;;-1.01;79.53;99034.44;5045814;28;20045;-80
2023/12/26 00:06:45;;;;;;;1.58;0.77;;;;;;;-1.02;78.96;99037.88;5046043;28;20069;-80
2023/12/26 00:09:13;;;;;;;2.30;0.73;;;;;;;-1.03;79.87;99037.88;5048115;28;20045;-80
2023/12/26 00:11:43;;;;;;;1.83;0.90;;;;;;;-1.05;79.86;99037.06;5047383;28;20048;-79
2023/12/26 00:14:11;;;;;;;1.05;0.50;;;;;;;-1.07;79.30;99044.75;5048371;28;20049;-80
2023/12/26 00:16:38;;;;;;;0.90;0.70;;;;;;;-1.08;79.06;99048.19;5046503;28;20045;-80
2023/12/26 00:19:05;;;;;;;0.82;0.40;;;;;;;-1.10;78.89;99049.03;5048018;28;20568;-83
2023/12/26 00:21:32;;;;;;;1.30;0.60;;;;;;;-1.12;79.30;99056.72;5043807;28;20445;-78
2023/12/26 00:24:00;;;;;;;1.08;0.55;;;;;;;-1.13;78.81;99057.59;5046116;28;20084;-78
2023/12/26 00:26:27;;;;;;;2.08;0.50;;;;;;;-1.17;79.26;99062.72;5045611;28;20112;-77
2023/12/26 00:28:54;;;;;;;1.20;0.57;;;;;;;-1.18;79.27;99073.88;5045552;28;20102;-77
2023/12/26 00:31:21;;;;;;;1.52;0.60;;;;;;;-1.22;79.46;99070.47;5045189;28;20118;-79
2023/12/26 00:33:49;;;;;;;1.13;0.70;;;;;;;-1.24;78.59;99082.44;5047748;28;20499;-80
2023/12/26 00:36:18;;;;;;;1.33;0.60;;;;;;;-1.28;79.62;99076.47;5049009;28;20517;-80
2023/12/26 00:38:45;;;;;;;1.02;0.60;;;;;;;-1.30;79.29;99070.47;5045734;28;20045;-80
2023/12/26 00:41:14;;;;;;;1.38;0.45;;;;;;;-1.35;78.89;99069.63;5047363;28;20044;-81
2023/12/26 00:43:41;;;;;;;1.67;0.60;;;;;;;-1.35;78.89;99077.31;5047035;28;20511;-80
2023/12/26 00:46:08;;;;;;;1.83;0.55;;;;;;;-1.37;78.92;99079.06;5046889;28;20087;-80
2023/12/26 00:48:37;;;;;;;1.58;0.50;;;;;;;-1.43;79.38;99081.59;5048309;28;20793;-80
2023/12/26 00:51:05;;;;;;;0.95;0.43;;;;;;;-1.46;78.84;99082.50;5046308;28;20044;-80
2023/12/26 00:53:32;;;;;;;1.08;0.50;;;;;;;-1.42;78.79;99087.63;5048585;28;20045;-80
2023/12/26 00:56:00;;;;;;;2.10;0.98;;;;;;;-1.46;79.35;99087.63;5047612;28;20735;-80
2023/12/26 00:58:28;;;;;;;1.40;0.75;;;;;;;-1.49;79.42;99086.75;5047919;28;20049;-81
2023/12/26 01:00:55;;;;;;;1.55;0.70;;;;;;;-1.48;78.92;99088.47;5045386;28;20387;-80
2023/12/26 01:03:22;;;;;;;0.50;0.38;;;;;;;-1.50;79.10;99096.16;5047261;28;20041;-80
2023/12/26 01:05:50;;;;;;;1.45;0.55;;;;;;;-1.52;79.13;99091.88;5046983;28;20045;-80
2023/12/26 01:08:17;;;;;;;1.02;0.55;;;;;;;-1.55;78.89;99091.88;5048045;28;20492;-79
2023/12/26 01:10:44;;;;;;;1.73;0.60;;;;;;;-1.61;78.60;99081.63;5045015;28;20044;-79
2023/12/26 01:13:11;;;;;;;1.20;0.77;;;;;;;-1.57;79.01;99099.59;5047388;28;20057;-80
2023/12/26 01:15:40;;;;;;;1.42;0.60;;;;;;;-1.57;79.35;99085.88;5046703;28;20045;-80
2023/12/26 01:18:08;;;;;;;1.50;0.70;;;;;;;-1.59;78.98;99100.44;5045745;28;20046;-79
2023/12/26 01:20:35;;;;;;;1.35;0.45;;;;;;;-1.61;79.04;99103.00;5045819;28;20052;-80
2023/12/26 01:23:03;;;;;;;1.75;0.55;;;;;;;-1.62;79.08;99108.16;5045461;28;20041;-80
2023/12/26 01:25:30;;;;;;;3.63;0.60;;;;;;;-1.63;78.22;99108.97;5045000;28;20060;-80
2023/12/26 01:27:57;;;;;;;1.25;0.77;;;;;;;-1.65;78.63;99120.97;5045028;28;20480;-80
2023/12/26 01:30:24;;;;;;;0.90;0.60;;;;;;;-1.69;78.33;99120.94;5044361;28;20414;-74
2023/12/26 01:32:52;;;;;;;1.45;0.57;;;;;;;-1.70;78.67;99132.06;5040393;28;20053;-74
2023/12/26 01:35:19;;;;;;;1.38;0.68;;;;;;;-1.73;79.26;99139.75;5046394;28;20056;-75
2023/12/26 01:37:46;;;;;;;1.90;0.55;;;;;;;-1.75;78.27;99141.44;5045232;28;20081;-75
2023/12/26 01:40:13;;;;;;;2.08;0.70;;;;;;;-1.77;78.64;99138.06;5043687;28;20126;-75
2023/12/26 01:42:41;;;;;;;1.73;0.60;;;;;;;-1.78;78.87;99140.59;5045430;28;20130;-76
2023/12/26 01:45:09;;;;;;;1.77;0.60;;;;;;;-1.82;78.45;99132.06;5045479;28;20045;-75
2023/12/26 01:47:36;;;;;;;1.45;0.52;;;;;;;-1.82;77.76;99123.53;5044054;28;20081;-76
2023/12/26 01:50:05;;;;;;;1.08;0.40;;;;;;;-1.85;78.65;99121.81;5044973;28;20892;-76
2023/12/26 01:52:35;;;;;;;1.45;0.50;;;;;;;-1.85;77.89;99134.63;5044640;28;20049;-76
2023/12/26 01:55:02;;;;;;;0.85;0.50;;;;;;;-1.87;78.43;99126.06;5046621;28;20094;-76
2023/12/26 01:57:32;;;;;;;0.73;0.50;;;;;;;-1.86;78.61;99132.03;5044650;28;20060;-77
2023/12/26 01:59:59;;;;;;;0.77;0.43;;;;;;;-1.88;78.02;99139.75;5044720;28;20045;-76
2023/12/26 02:02:26;;;;;;;0.82;0.52;;;;;;;-1.90;78.28;99138.88;5045277;28;20083;-76
2023/12/26 02:04:53;;;;;;;0.88;0.50;;;;;;;-1.91;78.15;99145.72;5044784;28;20040;-76
2023/12/26 02:07:22;;;;;;;1.08;0.40;;;;;;;-2.00;78.98;99135.44;5042800;28;20494;-76
2023/12/26 02:09:49;;;;;;;1.38;0.57;;;;;;;-1.96;78.25;99151.69;5045576;28;20478;-76
2023/12/26 02:12:16;;;;;;;1.35;0.60;;;;;;;-1.93;78.20;99155.09;5044171;28;20057;-78
2023/12/26 02:14:44;;;;;;;0.73;0.43;;;;;;;-1.93;78.25;99151.69;5045797;28;20491;-76
2023/12/26 02:17:17;;;;;;;0.60;0.40;;;;;;;-1.95;77.78;99144.00;5044561;28;20154;-76
2023/12/26 02:19:44;;;;;;;1.42;0.60;;;;;;;-1.96;78.15;99156.81;5045518;28;20103;-76
2023/12/26 02:22:11;;;;;;;3.22;0.70;;;;;;;-1.96;78.19;99149.97;5045473;28;20052;-76
2023/12/26 02:24:42;;;;;;;1.58;0.60;;;;;;;-2.03;78.32;99147.38;5044398;28;20056;-75
2023/12/26 02:27:12;;;;;;;0.73;0.50;;;;;;;-2.00;78.20;99166.19;5044087;28;20048;-76
2023/12/26 02:29:39;;;;;;;0.93;0.50;;;;;;;-1.99;78.42;99167.06;5045503;28;20122;-75
2023/12/26 02:32:07;;;;;;;1.92;0.57;;;;;;;-2.00;78.07;99160.22;5044531;28;20072;-76
2023/12/26 02:34:35;;;;;;;1.08;0.50;;;;;;;-2.01;78.15;99163.63;5043698;28;20057;-75
2023/12/26 02:37:02;;;;;;;0.90;0.40;;;;;;;-2.02;77.65;99172.19;5045286;28;20041;-75
2023/12/26 02:39:29;;;;;;;1.38;0.70;;;;;;;-2.04;77.91;99172.16;5044664;28;20483;-75
2023/12/26 02:41:57;;;;;;;1.60;0.68;;;;;;;-2.05;77.60;99169.59;5043197;28;20049;-75
2023/12/26 02:44:24;;;;;;;0.90;0.43;;;;;;;-2.07;78.71;99172.16;5042421;28;20114;-74
2023/12/26 02:46:51;;;;;;;1.13;0.47;;;;;;;-2.08;78.26;99177.28;5045599;28;20081;-74
2023/12/26 02:49:18;;;;;;;1.40;0.60;;;;;;;-2.10;77.94;99169.59;5043522;28;20041;-74
2023/12/26 02:51:45;;;;;;;1.65;0.57;;;;;;;-2.15;78.25;99167.00;5047149;28;20045;-78
2023/12/26 02:54:12;;;;;;;1.65;0.60;;;;;;;-2.13;78.36;99164.47;5048042;28;20057;-79
2023/12/26 02:56:39;;;;;;;1.55;0.50;;;;;;;-2.17;77.80;99163.59;5049609;28;20998;-79
2023/12/26 02:59:08;;;;;;;1.23;0.50;;;;;;;-2.18;77.27;99167.00;5047950;28;20150;-78
2023/12/26 03:01:35;;;;;;;1.50;0.75;;;;;;;-2.20;77.52;99165.28;5046607;28;20434;-78
2023/12/26 03:04:02;;;;;;;1.63;0.82;;;;;;;-2.21;77.75;99164.44;5047552;28;20057;-78
2023/12/26 03:06:29;;;;;;;1.02;0.65;;;;;;;-2.24;77.83;99166.97;5049961;28;20037;-78
2023/12/26 03:08:56;;;;;;;1.00;0.47;;;;;;;-2.25;77.48;99167.84;5048429;28;20071;-78
2023/12/26 03:11:23;;;;;;;1.48;0.50;;;;;;;-2.32;77.93;99163.53;5050878;28;20403;-78
2023/12/26 03:13:50;;;;;;;0.57;0.30;;;;;;;-2.41;78.09;99149.00;5048019;28;20053;-78
2023/12/26 03:16:20;;;;;;;0.60;0.35;;;;;;;-2.33;77.09;99174.66;5050656;28;20057;-78
2023/12/26 03:18:47;;;;;;;0.88;0.40;;;;;;;-2.37;77.54;99165.22;5042986;28;20045;-78
2023/12/26 03:21:14;;;;;;;1.08;0.40;;;;;;;-2.39;77.05;99161.81;5047166;28;20044;-78
2023/12/26 03:23:41;;;;;;;1.63;0.30;;;;;;;-2.45;76.95;99152.41;5048988;28;20049;-78
2023/12/26 03:26:08;;;;;;;3.13;0.40;;;;;;;-2.47;77.17;99151.53;5052726;28;20084;-78
2023/12/26 03:28:36;;;;;;;1.98;0.32;;;;;;;-2.52;77.11;99154.94;5049160;28;20099;-78
2023/12/26 03:31:03;;;;;;;1.20;0.32;;;;;;;-2.55;77.10;99152.34;5047424;28;20598;-78
2023/12/26 03:33:31;;;;;;;0.95;0.38;;;;;;;-2.56;76.43;99153.22;5049275;28;20053;-78
2023/12/26 03:35:58;;;;;;;1.58;0.50;;;;;;;-2.60;76.47;99158.28;5050054;28;20099;-78
2023/12/26 03:38:25;;;;;;;0.57;0.30;;;;;;;-2.66;76.77;99158.28;5045140;28;20091;-78
2023/12/26 03:40:52;;;;;;;1.85;0.55;;;;;;;-2.67;76.77;99156.56;5048750;28;20390;-78
2023/12/26 03:43:19;;;;;;;3.42;0.43;;;;;;;-2.72;77.60;99148.00;5051195;28;20045;-78
2023/12/26 03:45:50;;;;;;;1.17;0.30;;;;;;;-2.75;76.83;99150.56;5047779;28;20072;-78
2023/12/26 03:48:17;;;;;;;0.55;0.22;;;;;;;-2.79;77.28;99145.41;5041268;28;20053;-78
2023/12/26 03:50:46;;;;;;;0.50;0.25;;;;;;;-2.84;76.82;99142.84;5046835;28;20045;-80
2023/12/26 03:53:13;;;;;;;2.63;0.30;;;;;;;-2.87;76.72;99147.94;5046265;28;20048;-80
2023/12/26 03:55:40;;;;;;;0.90;0.30;;;;;;;-2.90;77.21;99147.94;5046491;28;20091;-80
2023/12/26 03:58:07;;;;;;;1.73;0.30;;;;;;;-2.95;76.97;99144.47;5041013;28;20048;-80
2023/12/26 04:00:34;;;;;;;0.93;0.30;;;;;;;-3.01;76.76;99142.75;5040781;28;20560;-76
2023/12/26 04:03:01;;;;;;;1.90;0.40;;;;;;;-3.03;76.72;99150.41;5042156;28;20491;-76
2023/12/26 04:05:28;;;;;;;1.10;0.40;;;;;;;-3.06;76.85;99145.25;5042134;28;20498;-75
2023/12/26 04:07:56;;;;;;;1.38;0.30;;;;;;;-3.12;76.54;99147.78;5041153;28;20487;-75
2023/12/26 04:10:23;;;;;;;1.25;0.40;;;;;;;-3.16;76.61;99146.06;5041358;28;20106;-75
2023/12/26 04:12:50;;;;;;;0.73;0.47;;;;;;;-3.19;76.35;99148.63;5041306;28;20058;-75
2023/12/26 04:15:17;;;;;;;1.27;0.30;;;;;;;-3.23;76.02;99134.06;5038706;28;20049;-75
2023/12/26 04:17:44;;;;;;;0.93;0.40;;;;;;;-3.27;75.78;99129.78;5038924;28;20102;-75
2023/12/26 04:20:11;;;;;;;0.40;0.20;;;;;;;-3.31;76.26;99135.72;5041311;28;20045;-75
2023/12/26 04:22:38;;;;;;;1.00;0.38;;;;;;;-3.37;76.40;99126.31;5039970;28;20576;-75
2023/12/26 04:25:08;;;;;;;0.82;0.40;;;;;;;-3.40;75.92;99130.53;5042103;28;20048;-76
2023/12/26 04:27:35;;;;;;;1.15;0.38;;;;;;;-3.44;75.73;99133.94;5037073;28;20545;-77
2023/12/26 04:30:02;;;;;;;1.15;0.30;;;;;;;-3.50;75.84;99133.03;5039881;28;20508;-75
2023/12/26 04:32:29;;;;;;;0.90;0.40;;;;;;;-3.53;76.25;99130.47;5040277;28;20064;-75
2023/12/26 04:34:56;;;;;;;1.27;0.30;;;;;;;-3.59;76.13;99129.53;5040297;28;20453;-75
2023/12/26 04:37:26;;;;;;;0.45;0.20;;;;;;;-3.61;76.18;99132.09;5041223;28;20569;-75
2023/12/26 04:39:52;;;;;;;0.73;0.20;;;;;;;-3.65;76.14;99132.06;5040247;28;20052;-75
2023/12/26 04:42:21;;;;;;;0.55;0.30;;;;;;;-3.69;76.17;99128.63;5043407;28;20072;-75
2023/12/26 04:44:48;;;;;;;0.55;0.40;;;;;;;-3.74;76.24;99125.16;5041394;28;20049;-75
2023/12/26 04:47:15;;;;;;;0.82;0.30;;;;;;;-3.78;76.18;99121.72;5038870;28;20076;-75
2023/12/26 04:49:42;;;;;;;2.05;0.30;;;;;;;-3.84;76.24;99115.72;5042595;28;20145;-75
2023/12/26 04:52:09;;;;;;;1.08;0.32;;;;;;;-3.87;76.63;99116.56;5038207;28;20106;-76
2023/12/26 04:54:36;;;;;;;1.05;0.50;;;;;;;-3.89;76.12;99115.66;5042672;28;20106;-75
2023/12/26 04:57:03;;;;;;;1.13;0.40;;;;;;;-3.94;76.06;99130.94;5036238;28;20096;-75
2023/12/26 04:59:32;;;;;;;0.45;0.22;;;;;;;-3.99;75.84;99127.53;5037706;28;20462;-75
2023/12/26 05:01:59;;;;;;;0.77;0.35;;;;;;;-4.06;76.04;99123.19;5042121;28;20068;-76
2023/12/26 05:04:26;;;;;;;0.43;0.20;;;;;;;-4.06;75.61;99137.66;5038694;28;20057;-77
2023/12/26 05:06:53;;;;;;;2.33;0.35;;;;;;;-4.11;76.19;99134.19;5041490;28;20127;-76
2023/12/26 05:09:20;;;;;;;0.90;0.30;;;;;;;-4.17;75.64;99145.19;5046417;28;20122;-76
2023/12/26 05:11:47;;;;;;;0.77;0.20;;;;;;;-4.19;75.99;99150.31;5049296;28;20053;-77
2023/12/26 05:14:14;;;;;;;0.75;0.30;;;;;;;-4.22;75.98;99150.25;5048154;28;20046;-77
2023/12/26 05:16:42;;;;;;;1.30;0.30;;;;;;;-4.25;76.05;99141.69;5045114;28;20483;-78
2023/12/26 05:19:10;;;;;;;1.13;0.20;;;;;;;-4.30;76.00;99140.78;5049854;28;20081;-77
2023/12/26 05:21:37;;;;;;;0.77;0.30;;;;;;;-4.33;76.05;99138.22;5046798;28;20049;-76
2023/12/26 05:24:04;;;;;;;0.70;0.30;;;;;;;-4.37;75.91;99137.31;5046925;28;20064;-77
2023/12/26 05:26:31;;;;;;;0.40;0.20;;;;;;;-4.42;75.80;99138.97;5049012;28;20076;-77
2023/12/26 05:28:58;;;;;;;1.15;0.30;;;;;;;-4.45;75.86;99136.38;5043661;28;20045;-77
2023/12/26 05:31:25;;;;;;;1.55;0.30;;;;;;;-4.50;75.96;99138.91;5046218;28;20411;-77
2023/12/26 05:33:53;;;;;;;0.90;0.32;;;;;;;-4.53;75.61;99150.75;5048039;28;20560;-76
2023/12/26 05:36:20;;;;;;;1.45;0.32;;;;;;;-4.57;75.84;99154.09;5041468;28;20045;-77
2023/12/26 05:38:47;;;;;;;0.80;0.40;;;;;;;-4.59;75.56;99153.22;5046249;28;20057;-77
2023/12/26 05:41:14;;;;;;;0.68;0.30;;;;;;;-4.65;76.03;99157.41;5042775;28;20123;-77
2023/12/26 05:43:41;;;;;;;0.47;0.20;;;;;;;-4.75;75.59;99145.38;5045483;28;20045;-77
2023/12/26 05:46:08;;;;;;;1.63;0.32;;;;;;;-4.69;76.01;99167.56;5050834;28;20049;-77
2023/12/26 05:48:35;;;;;;;0.70;0.30;;;;;;;-4.72;76.07;99175.19;5046270;28;20049;-77
2023/12/26 05:51:04;;;;;;;1.00;0.20;;;;;;;-4.75;75.99;99170.06;5046703;28;20041;-77
2023/12/26 05:53:31;;;;;;;0.25;0.10;;;;;;;-4.78;75.75;99167.47;5045177;28;20127;-77
2023/12/26 05:55:58;;;;;;;2.25;0.20;;;;;;;-4.82;75.69;99170.78;5049241;28;20049;-77
2023/12/26 05:58:25;;;;;;;0.65;0.30;;;;;;;-4.89;75.46;99157.97;5038944;28;20037;-77
2023/12/26 06:00:52;;;;;;;0.88;0.32;;;;;;;-4.91;75.37;99158.78;5044965;28;20094;-77
2023/12/26 06:03:19;;;;;;;0.50;0.28;;;;;;;-4.91;75.52;99158.78;5047077;28;20052;-77
2023/12/26 06:05:46;;;;;;;1.20;0.20;;;;;;;-4.94;75.76;99163.84;5047255;28;20045;-77
2023/12/26 06:08:15;;;;;;;0.70;0.25;;;;;;;-4.97;75.49;99159.53;5044267;28;20049;-77
2023/12/26 06:10:42;;;;;;;1.13;0.30;;;;;;;-4.99;75.73;99155.25;5045596;28;20114;-74
2023/12/26 06:13:10;;;;;;;0.68;0.20;;;;;;;-5.03;75.72;99145.88;5045624;28;20053;-74
2023/12/26 06:15:37;;;;;;;0.80;0.30;;;;;;;-5.06;75.84;99151.78;5039800;28;20075;-75
2023/12/26 06:18:04;;;;;;;1.65;0.40;;;;;;;-5.08;75.57;99151.75;5040589;28;20130;-74
2023/12/26 06:20:31;;;;;;;0.73;0.30;;;;;;;-5.10;75.61;99152.53;5042885;28;20049;-77
2023/12/26 06:22:58;;;;;;;0.80;0.30;;;;;;;-5.14;75.86;99151.66;5047996;28;20102;-77
2023/12/26 06:25:26;;;;;;;1.00;0.40;;;;;;;-5.17;75.82;99151.63;5040414;28;20084;-77
2023/12/26 06:27:53;;;;;;;0.98;0.20;;;;;;;-5.22;75.83;99139.63;5047972;28;20045;-77
2023/12/26 06:30:20;;;;;;;1.02;0.30;;;;;;;-5.21;76.01;99149.00;5053129;28;20045;-77
2023/12/26 06:32:47;;;;;;;0.73;0.40;;;;;;;-5.24;75.95;99143.84;5047336;28;20095;-77
2023/12/26 06:35:14;;;;;;;1.13;0.30;;;;;;;-5.27;75.67;99152.31;5043654;28;20483;-77
2023/12/26 06:37:41;;;;;;;0.30;0.25;;;;;;;-5.29;75.42;99156.53;5047656;28;20053;-77
2023/12/26 06:40:09;;;;;;;0.65;0.15;;;;;;;-5.33;75.71;99145.41;5051037;28;20045;-77
2023/12/26 06:42:38;;;;;;;0.43;0.20;;;;;;;-5.35;75.69;99147.13;5044014;28;20049;-77
2023/12/26 06:45:05;;;;;;;0.73;0.20;;;;;;;-5.38;75.34;99148.75;5046235;28;20087;-79
2023/12/26 06:47:32;;;;;;;1.67;0.20;;;;;;;-5.40;75.55;99148.72;5042334;28;20040;-79
2023/12/26 06:49:59;;;;;;;0.60;0.20;;;;;;;-5.48;75.54;99147.75;5048631;28;20106;-79
2023/12/26 06:52:26;;;;;;;0.98;0.80;;;;;;;-5.48;75.45;99155.38;5044229;28;20103;-79
2023/12/26 06:54:53;;;;;;;0.70;0.20;;;;;;;-5.51;75.70;99145.16;5050413;28;20045;-79
2023/12/26 06:57:20;;;;;;;0.73;0.30;;;;;;;-5.54;75.69;99142.56;5052180;28;20410;-79
2023/12/26 06:59:52;;;;;;;1.48;0.20;;;;;;;-5.57;75.69;99140.81;5050035;28;20106;-79
2023/12/26 07:02:18;;;;;;;0.93;0.20;;;;;;;-5.59;75.65;99145.03;5045534;28;20469;-79
2023/12/26 07:04:45;;;;;;;0.43;0.20;;;;;;;-5.63;75.73;99150.06;5049843;28;20037;-79
2023/12/26 07:07:13;;;;;;;0.43;0.22;;;;;;;-5.65;75.60;99154.25;5046119;28;20210;-78
2023/12/26 07:09:40;;;;;;;0.50;0.20;;;;;;;-5.65;75.72;99156.81;5046221;28;20413;-78
2023/12/26 07:12:07;;;;;;;1.73;0.20;;;;;;;-5.67;75.63;99158.47;5049461;28;20108;-78
2023/12/26 07:14:34;;;;;;;0.73;0.30;;;;;;;-5.69;75.62;99160.16;5052560;28;20053;-78
2023/12/26 07:17:03;;;;;;;0.30;0.30;;;;;;;-5.72;75.69;99153.31;5040699;28;20464;-78
2023/12/26 07:19:30;;;;;;;0.55;0.30;;;;;;;-5.86;75.35;99140.34;5038971;28;20352;-79
2023/12/26 07:21:57;;;;;;;0.73;0.30;;;;;;;-5.75;75.70;99158.38;5039692;28;20042;-77
2023/12/26 07:24:24;;;;;;;1.13;0.30;;;;;;;-5.76;75.88;99164.28;5042613;28;20103;-77
2023/12/26 07:26:51;;;;;;;1.30;0.40;;;;;;;-5.77;75.50;99165.13;5040533;28;20103;-77
2023/12/26 07:29:18;;;;;;;0.88;0.30;;;;;;;-5.79;75.95;99164.22;5047025;28;20056;-77
2023/12/26 07:31:45;;;;;;;0.75;0.25;;;;;;;-5.81;75.86;99164.22;5039985;28;21194;-71
2023/12/26 07:34:13;;;;;;;1.10;0.35;;;;;;;-5.80;75.80;99171.00;5041038;28;20469;-70
2023/12/26 07:36:40;;;;;;;0.90;0.30;;;;;;;-5.81;75.82;99174.41;5041751;28;20114;-71
2023/12/26 07:39:07;;;;;;;0.70;0.35;;;;;;;-5.84;75.67;99178.56;5041335;28;20049;-71
2023/12/26 07:41:34;;;;;;;1.13;0.30;;;;;;;-5.82;75.68;99172.66;5040902;28;20052;-71
2023/12/26 07:44:01;;;;;;;1.02;0.32;;;;;;;-5.83;76.33;99181.16;5036984;28;20654;-71
2023/12/26 07:46:28;;;;;;;2.28;0.30;;;;;;;-5.88;75.61;99171.72;5041379;28;20126;-71
2023/12/26 07:48:55;;;;;;;0.57;0.20;;;;;;;-5.85;75.70;99177.72;5041748;28;20044;-71
2023/12/26 07:51:24;;;;;;;1.45;0.50;;;;;;;-5.86;75.84;99170.91;5041797;28;20067;-71
2023/12/26 07:53:51;;;;;;;0.70;0.30;;;;;;;-5.87;75.67;99173.41;5041582;28;20053;-71
2023/12/26 07:56:18;;;;;;;2.05;0.52;;;;;;;-5.91;75.65;99164.03;5041087;28;20099;-71
2023/12/26 07:58:45;;;;;;;0.52;0.20;;;;;;;-5.88;75.77;99175.09;4991199;28;20060;-71
2023/12/26 08:01:13;;;;;;;1.63;0.40;;;;;;;-5.89;75.81;99172.56;5035818;28;20699;-71
2023/12/26 08:03:40;;;;;;;0.70;0.30;;;;;;;-5.89;75.75;99170.84;5041419;28;20081;-71
2023/12/26 08:06:07;;;;;;;1.00;0.30;;;;;;;-5.93;75.61;99161.44;5039663;28;20040;-71
2023/12/26 08:08:35;;;;;;;1.33;0.52;;;;;;;-5.94;75.50;99159.72;5036494;28;21943;-71
2023/12/26 08:11:02;;;;;;;0.90;0.50;;;;;;;-5.92;75.57;99163.16;5039989;28;20458;-71
2023/12/26 08:13:29;;;;;;;1.33;0.40;;;;;;;-5.93;75.67;99166.53;5042108;28;20088;-71
2023/12/26 08:15:56;;;;;;;1.23;0.30;;;;;;;-5.94;75.76;99166.50;5039115;28;20053;-71
2023/12/26 08:18:23;;;;;;;0.70;0.30;;;;;;;-5.95;75.73;99173.31;5037365;28;20080;-72
2023/12/26 08:20:50;;;;;;;0.88;0.52;;;;;;;-5.96;75.65;99174.13;5038263;28;20049;-70
2023/12/26 08:23:17;;;;;;;1.52;0.40;;;;;;;-5.97;75.90;99169.84;5035865;28;20077;-71
2023/12/26 08:25:45;;;;;;;1.45;0.30;;;;;;;-5.97;75.85;99180.03;5040755;28;20045;-71
2023/12/26 08:28:12;;;;;;;0.90;0.32;;;;;;;-5.97;75.52;99177.50;5037385;28;20045;-70
2023/12/26 08:30:39;;;;;;;0.98;0.52;;;;;;;-5.98;76.00;99185.94;5040131;28;20041;-73
2023/12/26 08:33:07;;;;;;;0.90;0.38;;;;;;;-5.97;75.73;99188.53;5041076;28;20483;-73
2023/12/26 08:35:34;;;;;;;1.42;0.40;;;;;;;-6.02;75.69;99177.41;5037033;28;20068;-72
2023/12/26 08:38:01;;;;;;;1.00;0.40;;;;;;;-5.98;75.75;99191.03;5036313;28;20716;-75
2023/12/26 08:40:28;;;;;;;2.80;0.60;;;;;;;-5.98;75.73;99193.59;5038242;28;20045;-77
2023/12/26 08:42:56;;;;;;;1.98;0.50;;;;;;;-5.97;75.81;99195.31;5040465;28;20122;-73
2023/12/26 08:45:23;;;;;;;1.58;0.40;;;;;;;-5.98;75.96;99188.50;5041076;28;20045;-75
2023/12/26 08:47:52;;;;;;;2.80;0.90;;;;;;;-5.96;75.92;99202.13;5042013;28;20072;-75
2023/12/26 08:50:19;;;;;;;3.10;1.30;;;;;;;-5.95;75.79;99195.34;5042761;28;20044;-75
2023/12/26 08:52:46;;;;;;;5.43;1.45;;;;;;;-5.97;76.10;99190.22;5040744;28;20094;-75
2023/12/26 08:55:13;;;;;;;6.75;2.13;;;;;;;-5.93;76.22;99197.09;5041338;28;20084;-75
2023/12/26 08:57:41;;;;;;;15.70;4.38;;;;;;;-5.93;76.14;99198.78;5045247;28;20048;-76
2023/12/26 09:00:13;;;;;;;11.98;4.43;;;;;;;-5.94;76.13;99205.56;5041579;28;20051;-75
2023/12/26 09:02:40;;;;;;;15.73;5.43;;;;;;;-5.94;75.76;99204.72;5041514;28;20053;-75
2023/12/26 09:05:10;;;;;;;11.00;4.25;;;;;;;-5.94;75.87;99199.63;5042607;28;20134;-76
2023/12/26 09:07:37;;;;;;;5.38;1.98;;;;;;;-5.95;75.79;99193.69;5046760;28;20049;-76
2023/12/26 09:10:04;;;;;;;5.03;1.65;;;;;;;-5.93;75.85;99198.78;5049279;28;20053;-75
2023/12/26 09:12:31;;;;;;;4.57;1.40;;;;;;;-5.94;75.91;99195.38;5042379;28;20465;-77
2023/12/26 09:14:58;;;;;;;2.45;0.95;;;;;;;-5.93;75.95;99197.09;5045100;28;20561;-76
2023/12/26 09:17:27;;;;;;;3.08;1.20;;;;;;;-5.93;76.03;99181.81;5042955;28;20071;-76
2023/12/26 09:19:53;;;;;;;4.53;1.17;;;;;;;-5.96;75.93;99176.66;5045656;28;20107;-77
2023/12/26 09:22:20;;;;;;;1.27;0.50;;;;;;;-5.88;76.08;99194.63;5044470;28;20053;-77
2023/12/26 09:24:47;;;;;;;3.70;1.20;;;;;;;-5.87;76.16;99196.34;5042734;28;20419;-76
2023/12/26 09:27:14;;;;;;;4.03;0.55;;;;;;;-5.86;76.52;99195.53;5043834;28;20045;-74
2023/12/26 09:29:41;;;;;;;1.73;0.60;;;;;;;-5.84;76.35;99202.38;5045283;28;20052;-74
2023/12/26 09:32:08;;;;;;;5.60;1.55;;;;;;;-5.81;76.43;99207.50;5042459;28;20136;-76
2023/12/26 09:34:37;;;;;;;5.20;1.05;;;;;;;-5.80;76.35;99204.13;5047298;28;20095;-77
2023/12/26 09:37:04;;;;;;;3.13;1.10;;;;;;;-5.76;76.63;99205.88;5043751;28;20483;-75
2023/12/26 09:39:31;;;;;;;4.70;1.23;;;;;;;-5.80;76.64;99193.09;5039316;28;20572;-76
2023/12/26 09:42:02;;;;;;;7.85;2.00;;;;;;;-5.68;76.72;99207.72;5047717;28;20146;-77
2023/12/26 09:44:29;;;;;;;5.20;1.77;;;;;;;-5.64;76.68;99209.47;5048846;28;20414;-78
2023/12/26 09:46:58;;;;;;;9.38;1.48;;;;;;;-5.60;76.92;99216.34;5045730;28;20131;-77
2023/12/26 09:49:25;;;;;;;6.32;1.33;;;;;;;-5.56;76.79;99216.41;5050016;28;20133;-77
2023/12/26 09:51:58;;;;;;;5.38;1.27;;;;;;;-5.54;77.15;99201.16;5044255;28;20049;-77
2023/12/26 09:54:30;;;;;;;6.88;1.30;;;;;;;-5.51;77.30;99211.41;5044324;28;20057;-77
2023/12/26 09:56:58;;;;;;;6.07;1.15;;;;;;;-5.41;77.11;99226.03;5047986;28;20041;-77
2023/12/26 09:59:26;;;;;;;5.07;0.70;;;;;;;-5.36;77.43;99211.66;5037914;28;20072;-77
2023/12/26 10:01:53;;;;;;;6.57;0.73;;;;;;;-5.31;77.39;99210.03;5046666;28;20045;-77
2023/12/26 10:04:21;;;;;;;6.25;1.63;;;;;;;-5.25;77.42;99213.53;5045060;28;20550;-77
2023/12/26 10:06:48;;;;;;;6.80;2.28;;;;;;;-5.20;77.40;99222.09;5045621;28;20049;-75
2023/12/26 10:09:18;;;;;;;6.53;1.05;;;;;;;-5.15;77.65;99217.94;5042341;28;20487;-77
2023/12/26 10:11:46;;;;;;;6.07;1.35;;;;;;;-5.20;77.75;99202.56;5043105;28;20503;-77
2023/12/26 10:14:13;;;;;;;4.28;1.10;;;;;;;-5.09;78.04;99206.13;5041925;28;20067;-75
2023/12/26 10:16:40;;;;;;;4.72;1.48;;;;;;;-4.99;77.80;99221.56;5044009;28;20111;-75
2023/12/26 10:19:12;;;;;;;5.00;0.90;;;;;;;-4.94;78.00;99220.81;5040051;28;20096;-74
2023/12/26 10:21:39;;;;;;;6.07;1.98;;;;;;;-4.89;77.80;99220.88;5041198;28;20120;-77
2023/12/26 10:24:10;;;;;;;5.55;0.80;;;;;;;-4.83;77.64;99217.56;5047081;28;20566;-77
2023/12/26 10:26:38;;;;;;;3.65;1.20;;;;;;;-4.78;78.42;99226.16;5042731;28;20411;-78
2023/12/26 10:29:05;;;;;;;3.80;1.17;;;;;;;-4.74;78.21;99223.63;5040214;28;20502;-76
2023/12/26 10:31:33;;;;;;;3.05;0.80;;;;;;;-4.68;78.23;99222.88;5038236;28;20084;-76
2023/12/26 10:34:13;;;;;;;5.53;1.30;;;;;;;-4.63;78.33;99222.09;5041230;28;20049;-76
2023/12/26 10:36:42;;;;;;;5.75;0.98;;;;;;;-4.57;78.36;99228.97;5039485;28;21473;-75
2023/12/26 10:39:10;;;;;;;5.82;1.15;;;;;;;-4.53;78.28;99228.19;5037399;28;20056;-74
2023/12/26 10:41:43;;;;;;;5.10;1.20;;;;;;;-4.47;78.57;99233.38;5040248;28;20065;-74
2023/12/26 10:44:11;;;;;;;3.97;0.85;;;;;;;-4.43;78.32;99229.16;5041635;28;20131;-73
2023/12/26 10:46:40;;;;;;;3.35;0.82;;;;;;;-4.38;78.41;99232.63;5039442;28;20052;-76
2023/12/26 10:49:10;;;;;;;2.70;0.98;;;;;;;-4.33;78.49;99236.09;5039993;28;20893;-76
2023/12/26 10:51:41;;;;;;;9.63;1.55;;;;;;;-4.27;78.56;99235.34;5044423;28;20451;-76
2023/12/26 10:54:21;;;;;;;6.00;0.88;;;;;;;-4.23;78.45;99234.50;5045951;28;20052;-75
2023/12/26 10:56:50;;;;;;;6.20;1.75;;;;;;;-4.19;78.36;99241.34;5042634;28;20118;-76
2023/12/26 13:51:29;;;;;;;1.88;0.40;;;;;;;-3.17;77.72;99330.22;5048148;28;20083;-76
2023/12/26 13:53:57;;;;;;;3.25;0.55;;;;;;;-3.18;78.02;99331.94;5047607;28;20052;-76
2023/12/26 13:56:23;;;;;;;1.10;0.52;;;;;;;-3.16;78.21;99334.47;5048363;28;20046;-76
2023/12/26 13:58:50;;;;;;;1.45;0.60;;;;;;;-3.17;78.16;99332.78;5042181;28;20048;-76
2023/12/26 14:01:16;;;;;;;1.90;0.60;;;;;;;-3.16;78.35;99335.38;5043033;28;20063;-76
2023/12/26 14:03:49;;;;;;;1.40;0.65;;;;;;;-3.17;78.12;99336.19;5049847;28;20054;-78
2023/12/26 14:06:17;;;;;;;0.88;0.50;;;;;;;-3.24;77.86;99324.19;5047879;28;20556;-77
2023/12/26 14:08:44;;;;;;;1.70;0.63;;;;;;;-3.14;78.17;99343.91;5047338;28;20052;-77
2023/12/26 14:11:12;;;;;;;9.15;2.80;;;;;;;-3.14;78.30;99343.91;5049036;28;20837;-77
2023/12/26 14:13:39;;;;;;;5.32;1.55;;;;;;;-3.13;77.50;99347.34;5051573;28;20041;-77
2023/12/26 14:16:06;;;;;;;5.00;1.08;;;;;;;-3.13;77.61;99360.97;5047515;28;20051;-77
2023/12/26 14:18:33;;;;;;;1.63;0.90;;;;;;;-3.11;77.82;99355.84;5050466;28;20746;-77
2023/12/26 14:21:00;;;;;;;2.50;0.90;;;;;;;-3.12;78.06;99355.00;5046238;28;20037;-75
2023/12/26 14:23:28;;;;;;;1.63;1.10;;;;;;;-3.12;78.64;99356.72;5041085;28;20064;-75
2023/12/26 14:25:55;;;;;;;4.18;1.17;;;;;;;-3.14;78.05;99356.69;5044400;28;20049;-75
2023/12/26 14:28:24;;;;;;;3.25;1.00;;;;;;;-3.10;77.64;99363.56;5042935;28;20061;-76